sensor_id;sensor_type;location;lat;lon;timestamp;P1;durP1;ratioP1;P2;durP2;ratioP2
32407;SDS011;18869;55.970;37.502;2022-08-18T00:02:12;7.97;;;7.10;;
32407;SDS011;18869;55.970;37.502;2022-08-18T00:04:42;9.70;;;8.13;;
32407;SDS011;18869;55.970;37.502;2022-08-18T00:07:11;8.17;;;7.10;;
32407;SDS011;18869;55.970;37.502;2022-08-18T00:09:40;13.50;;;6.70;;
32407;SDS011;18869;55.970;37.502;2022-08-18T00:12:11;9.80;;;7.97;;
32407;SDS011;18869;55.970;37.502;2022-08-18T00:14:40;7.80;;;6.30;;
32407;SDS011;18869;55.970;37.502;2022-08-18T00:17:08;8.07;;;6.57;;
32407;SDS011;18869;55.970;37.502;2022-08-18T00:19:37;9.97;;;7.93;;
32407;SDS011;18869;55.970;37.502;2022-08-18T00:22:05;7.83;;;7.03;;
32407;SDS011;18869;55.970;37.502;2022-08-18T00:24:33;10.80;;;7.73;;
32407;SDS011;18869;55.970;37.502;2022-08-18T00:27:03;9.03;;;7.43;;
32407;SDS011;18869;55.970;37.502;2022-08-18T00:29:33;11.63;;;8.00;;
32407;SDS011;18869;55.970;37.502;2022-08-18T00:32:09;10.47;;;7.33;;
32407;SDS011;18869;55.970;37.502;2022-08-18T00:34:40;9.10;;;6.53;;
32407;SDS011;18869;55.970;37.502;2022-08-18T00:37:10;9.53;;;6.83;;
32407;SDS011;18869;55.970;37.502;2022-08-18T00:39:38;12.23;;;6.87;;
32407;SDS011;18869;55.970;37.502;2022-08-18T00:42:16;10.90;;;7.47;;
32407;SDS011;18869;55.970;37.502;2022-08-18T00:44:48;12.23;;;7.40;;
32407;SDS011;18869;55.970;37.502;2022-08-18T00:47:16;10.20;;;7.07;;
32407;SDS011;18869;55.970;37.502;2022-08-18T00:49:47;8.03;;;6.43;;
32407;SDS011;18869;55.970;37.502;2022-08-18T00:52:18;10.13;;;6.97;;
32407;SDS011;18869;55.970;37.502;2022-08-18T00:54:46;13.90;;;7.83;;
32407;SDS011;18869;55.970;37.502;2022-08-18T00:57:17;7.83;;;6.93;;
32407;SDS011;18869;55.970;37.502;2022-08-18T00:59:47;8.40;;;6.73;;
32407;SDS011;18869;55.970;37.502;2022-08-18T01:02:25;10.90;;;7.40;;
32407;SDS011;18869;55.970;37.502;2022-08-18T01:04:58;9.53;;;7.87;;
32407;SDS011;18869;55.970;37.502;2022-08-18T01:07:31;9.00;;;7.20;;
32407;SDS011;18869;55.970;37.502;2022-08-18T01:10:02;12.33;;;7.47;;
32407;SDS011;18869;55.970;37.502;2022-08-18T01:12:31;9.37;;;6.97;;
32407;SDS011;18869;55.970;37.502;2022-08-18T01:14:59;9.43;;;7.57;;
32407;SDS011;18869;55.970;37.502;2022-08-18T01:17:29;9.00;;;6.40;;
32407;SDS011;18869;55.970;37.502;2022-08-18T01:20:18;10.43;;;7.33;;
32407;SDS011;18869;55.970;37.502;2022-08-18T01:23:08;11.47;;;7.03;;
32407;SDS011;18869;55.970;37.502;2022-08-18T01:25:38;12.97;;;7.10;;
32407;SDS011;18869;55.970;37.502;2022-08-18T01:28:26;9.43;;;6.83;;
32407;SDS011;18869;55.970;37.502;2022-08-18T01:30:55;12.47;;;7.07;;
32407;SDS011;18869;55.970;37.502;2022-08-18T01:33:24;8.10;;;6.93;;
32407;SDS011;18869;55.970;37.502;2022-08-18T01:35:57;9.10;;;6.83;;
32407;SDS011;18869;55.970;37.502;2022-08-18T01:38:29;9.50;;;6.83;;
32407;SDS011;18869;55.970;37.502;2022-08-18T01:40:57;9.57;;;6.63;;
32407;SDS011;18869;55.970;37.502;2022-08-18T01:43:25;8.30;;;6.87;;
32407;SDS011;18869;55.970;37.502;2022-08-18T01:45:53;12.73;;;7.03;;
32407;SDS011;18869;55.970;37.502;2022-08-18T01:48:22;7.17;;;6.03;;
32407;SDS011;18869;55.970;37.502;2022-08-18T01:50:50;7.20;;;6.30;;
32407;SDS011;18869;55.970;37.502;2022-08-18T01:53:19;10.57;;;7.03;;
32407;SDS011;18869;55.970;37.502;2022-08-18T01:55:48;6.63;;;5.87;;
32407;SDS011;18869;55.970;37.502;2022-08-18T01:58:16;9.20;;;6.63;;
32407;SDS011;18869;55.970;37.502;2022-08-18T02:00:44;7.50;;;6.33;;
32407;SDS011;18869;55.970;37.502;2022-08-18T02:03:16;9.17;;;7.23;;
32407;SDS011;18869;55.970;37.502;2022-08-18T02:05:45;11.70;;;6.83;;
32407;SDS011;18869;55.970;37.502;2022-08-18T02:08:14;9.37;;;7.03;;
32407;SDS011;18869;55.970;37.502;2022-08-18T02:10:43;7.17;;;6.07;;
32407;SDS011;18869;55.970;37.502;2022-08-18T02:13:12;8.07;;;6.77;;
32407;SDS011;18869;55.970;37.502;2022-08-18T02:15:40;7.50;;;6.80;;
32407;SDS011;18869;55.970;37.502;2022-08-18T02:18:12;12.20;;;6.97;;
32407;SDS011;18869;55.970;37.502;2022-08-18T02:20:42;7.47;;;6.23;;
32407;SDS011;18869;55.970;37.502;2022-08-18T02:23:10;10.23;;;6.87;;
32407;SDS011;18869;55.970;37.502;2022-08-18T02:25:37;11.20;;;6.80;;
32407;SDS011;18869;55.970;37.502;2022-08-18T02:28:08;9.93;;;6.93;;
32407;SDS011;18869;55.970;37.502;2022-08-18T02:30:38;7.77;;;6.23;;
32407;SDS011;18869;55.970;37.502;2022-08-18T02:33:06;8.13;;;6.77;;
32407;SDS011;18869;55.970;37.502;2022-08-18T02:35:34;9.27;;;8.03;;
32407;SDS011;18869;55.970;37.502;2022-08-18T02:38:04;9.53;;;6.87;;
32407;SDS011;18869;55.970;37.502;2022-08-18T02:40:32;8.97;;;6.53;;
32407;SDS011;18869;55.970;37.502;2022-08-18T02:43:04;7.90;;;6.63;;
32407;SDS011;18869;55.970;37.502;2022-08-18T02:45:34;7.63;;;6.80;;
32407;SDS011;18869;55.970;37.502;2022-08-18T02:48:04;6.97;;;6.20;;
32407;SDS011;18869;55.970;37.502;2022-08-18T02:50:33;9.03;;;6.90;;
32407;SDS011;18869;55.970;37.502;2022-08-18T02:53:09;8.60;;;6.90;;
32407;SDS011;18869;55.970;37.502;2022-08-18T02:55:39;8.53;;;6.97;;
32407;SDS011;18869;55.970;37.502;2022-08-18T02:58:07;9.43;;;7.60;;
32407;SDS011;18869;55.970;37.502;2022-08-18T03:00:35;11.33;;;6.83;;
32407;SDS011;18869;55.970;37.502;2022-08-18T03:03:05;7.83;;;6.27;;
32407;SDS011;18869;55.970;37.502;2022-08-18T03:05:33;7.80;;;6.90;;
32407;SDS011;18869;55.970;37.502;2022-08-18T03:08:01;11.20;;;6.87;;
32407;SDS011;18869;55.970;37.502;2022-08-18T03:10:28;7.13;;;6.20;;
32407;SDS011;18869;55.970;37.502;2022-08-18T03:12:56;11.07;;;7.37;;
32407;SDS011;18869;55.970;37.502;2022-08-18T03:15:24;8.57;;;6.47;;
32407;SDS011;18869;55.970;37.502;2022-08-18T03:17:52;11.17;;;7.20;;
32407;SDS011;18869;55.970;37.502;2022-08-18T03:20:20;15.73;;;6.50;;
32407;SDS011;18869;55.970;37.502;2022-08-18T03:22:49;9.00;;;5.73;;
32407;SDS011;18869;55.970;37.502;2022-08-18T03:25:17;10.83;;;6.53;;
32407;SDS011;18869;55.970;37.502;2022-08-18T03:27:44;11.03;;;6.53;;
32407;SDS011;18869;55.970;37.502;2022-08-18T03:30:12;8.07;;;6.90;;
32407;SDS011;18869;55.970;37.502;2022-08-18T03:32:40;7.20;;;6.23;;
32407;SDS011;18869;55.970;37.502;2022-08-18T03:35:08;9.73;;;7.43;;
32407;SDS011;18869;55.970;37.502;2022-08-18T03:37:37;7.13;;;6.17;;
32407;SDS011;18869;55.970;37.502;2022-08-18T03:40:05;9.93;;;6.70;;
32407;SDS011;18869;55.970;37.502;2022-08-18T03:42:34;9.60;;;7.10;;
32407;SDS011;18869;55.970;37.502;2022-08-18T03:45:02;11.27;;;6.73;;
32407;SDS011;18869;55.970;37.502;2022-08-18T03:47:31;9.13;;;7.30;;
32407;SDS011;18869;55.970;37.502;2022-08-18T03:50:00;11.23;;;7.73;;
32407;SDS011;18869;55.970;37.502;2022-08-18T03:52:29;8.43;;;7.17;;
32407;SDS011;18869;55.970;37.502;2022-08-18T03:54:58;9.33;;;7.53;;
32407;SDS011;18869;55.970;37.502;2022-08-18T03:57:28;14.13;;;7.73;;
32407;SDS011;18869;55.970;37.502;2022-08-18T03:59:58;10.73;;;8.23;;
32407;SDS011;18869;55.970;37.502;2022-08-18T04:02:26;8.80;;;7.20;;
32407;SDS011;18869;55.970;37.502;2022-08-18T04:04:54;8.43;;;6.80;;
32407;SDS011;18869;55.970;37.502;2022-08-18T04:07:22;9.10;;;7.30;;
32407;SDS011;18869;55.970;37.502;2022-08-18T04:09:49;11.33;;;7.40;;
32407;SDS011;18869;55.970;37.502;2022-08-18T04:12:18;8.27;;;7.37;;
32407;SDS011;18869;55.970;37.502;2022-08-18T04:14:47;10.77;;;7.30;;
32407;SDS011;18869;55.970;37.502;2022-08-18T04:17:16;7.67;;;6.53;;
32407;SDS011;18869;55.970;37.502;2022-08-18T04:19:50;11.87;;;6.97;;
32407;SDS011;18869;55.970;37.502;2022-08-18T04:22:17;9.23;;;6.20;;
32407;SDS011;18869;55.970;37.502;2022-08-18T04:24:46;9.60;;;7.23;;
32407;SDS011;18869;55.970;37.502;2022-08-18T04:27:15;9.43;;;6.20;;
32407;SDS011;18869;55.970;37.502;2022-08-18T04:29:45;9.83;;;7.27;;
32407;SDS011;18869;55.970;37.502;2022-08-18T04:32:12;12.93;;;7.23;;
32407;SDS011;18869;55.970;37.502;2022-08-18T04:34:40;8.70;;;6.40;;
32407;SDS011;18869;55.970;37.502;2022-08-18T04:37:08;7.43;;;5.87;;
32407;SDS011;18869;55.970;37.502;2022-08-18T04:39:35;12.20;;;6.73;;
32407;SDS011;18869;55.970;37.502;2022-08-18T04:42:03;9.83;;;6.47;;
32407;SDS011;18869;55.970;37.502;2022-08-18T04:44:31;9.33;;;6.90;;
32407;SDS011;18869;55.970;37.502;2022-08-18T04:47:03;8.57;;;6.63;;
32407;SDS011;18869;55.970;37.502;2022-08-18T04:49:31;10.60;;;6.97;;
32407;SDS011;18869;55.970;37.502;2022-08-18T04:51:59;8.30;;;7.47;;
32407;SDS011;18869;55.970;37.502;2022-08-18T04:54:44;12.03;;;7.40;;
32407;SDS011;18869;55.970;37.502;2022-08-18T04:57:12;8.50;;;7.63;;
32407;SDS011;18869;55.970;37.502;2022-08-18T04:59:42;11.00;;;8.43;;
32407;SDS011;18869;55.970;37.502;2022-08-18T05:02:13;13.37;;;8.10;;
32407;SDS011;18869;55.970;37.502;2022-08-18T05:04:41;12.57;;;8.70;;
32407;SDS011;18869;55.970;37.502;2022-08-18T05:07:13;16.43;;;9.23;;
32407;SDS011;18869;55.970;37.502;2022-08-18T05:09:42;17.07;;;11.93;;
32407;SDS011;18869;55.970;37.502;2022-08-18T05:12:10;17.20;;;12.40;;
32407;SDS011;18869;55.970;37.502;2022-08-18T05:14:42;15.40;;;11.77;;
32407;SDS011;18869;55.970;37.502;2022-08-18T05:17:12;18.87;;;13.87;;
32407;SDS011;18869;55.970;37.502;2022-08-18T05:19:40;22.77;;;17.03;;
32407;SDS011;18869;55.970;37.502;2022-08-18T05:22:11;26.77;;;19.33;;
32407;SDS011;18869;55.970;37.502;2022-08-18T05:24:42;28.60;;;22.53;;
32407;SDS011;18869;55.970;37.502;2022-08-18T05:27:10;26.97;;;20.07;;
32407;SDS011;18869;55.970;37.502;2022-08-18T05:29:39;26.87;;;23.87;;
32407;SDS011;18869;55.970;37.502;2022-08-18T05:32:06;41.20;;;25.67;;
32407;SDS011;18869;55.970;37.502;2022-08-18T05:34:36;32.37;;;26.27;;
32407;SDS011;18869;55.970;37.502;2022-08-18T05:37:08;39.13;;;32.50;;
32407;SDS011;18869;55.970;37.502;2022-08-18T05:39:45;35.27;;;30.23;;
32407;SDS011;18869;55.970;37.502;2022-08-18T05:42:20;32.05;;;28.58;;
32407;SDS011;18869;55.970;37.502;2022-08-18T05:44:51;34.63;;;28.00;;
32407;SDS011;18869;55.970;37.502;2022-08-18T05:47:21;31.50;;;27.35;;
32407;SDS011;18869;55.970;37.502;2022-08-18T05:49:53;34.45;;;30.85;;
32407;SDS011;18869;55.970;37.502;2022-08-18T05:52:26;33.97;;;29.85;;
32407;SDS011;18869;55.970;37.502;2022-08-18T05:54:59;39.25;;;35.15;;
32407;SDS011;18869;55.970;37.502;2022-08-18T05:57:45;37.08;;;33.25;;
32407;SDS011;18869;55.970;37.502;2022-08-18T06:00:16;47.83;;;39.03;;
32407;SDS011;18869;55.970;37.502;2022-08-18T06:02:51;41.30;;;37.08;;
32407;SDS011;18869;55.970;37.502;2022-08-18T06:05:24;40.12;;;35.53;;
32407;SDS011;18869;55.970;37.502;2022-08-18T06:07:56;30.58;;;26.65;;
32407;SDS011;18869;55.970;37.502;2022-08-18T06:10:26;31.92;;;26.12;;
32407;SDS011;18869;55.970;37.502;2022-08-18T06:12:54;39.60;;;32.65;;
32407;SDS011;18869;55.970;37.502;2022-08-18T06:15:24;29.75;;;26.30;;
32407;SDS011;18869;55.970;37.502;2022-08-18T06:17:58;27.40;;;24.23;;
32407;SDS011;18869;55.970;37.502;2022-08-18T06:20:50;24.33;;;21.75;;
32407;SDS011;18869;55.970;37.502;2022-08-18T06:23:28;27.98;;;23.90;;
32407;SDS011;18869;55.970;37.502;2022-08-18T06:26:02;33.45;;;26.98;;
32407;SDS011;18869;55.970;37.502;2022-08-18T06:28:41;28.30;;;25.30;;
32407;SDS011;18869;55.970;37.502;2022-08-18T06:31:15;32.00;;;25.40;;
32407;SDS011;18869;55.970;37.502;2022-08-18T06:33:48;32.83;;;28.38;;
32407;SDS011;18869;55.970;37.502;2022-08-18T06:36:26;31.77;;;28.48;;
32407;SDS011;18869;55.970;37.502;2022-08-18T06:39:02;32.60;;;29.10;;
32407;SDS011;18869;55.970;37.502;2022-08-18T06:41:33;35.75;;;31.87;;
32407;SDS011;18869;55.970;37.502;2022-08-18T06:44:04;34.67;;;31.02;;
32407;SDS011;18869;55.970;37.502;2022-08-18T06:46:39;37.75;;;32.90;;
32407;SDS011;18869;55.970;37.502;2022-08-18T06:49:09;38.05;;;34.05;;
32407;SDS011;18869;55.970;37.502;2022-08-18T06:51:40;40.63;;;36.53;;
32407;SDS011;18869;55.970;37.502;2022-08-18T06:54:23;44.10;;;36.67;;
32407;SDS011;18869;55.970;37.502;2022-08-18T06:56:53;43.55;;;37.47;;
32407;SDS011;18869;55.970;37.502;2022-08-18T06:59:23;42.72;;;38.20;;
32407;SDS011;18869;55.970;37.502;2022-08-18T07:01:53;42.55;;;37.53;;
32407;SDS011;18869;55.970;37.502;2022-08-18T07:07:29;40.08;;;35.83;;
32407;SDS011;18869;55.970;37.502;2022-08-18T07:09:58;38.70;;;34.53;;
32407;SDS011;18869;55.970;37.502;2022-08-18T07:12:27;36.75;;;33.05;;
32407;SDS011;18869;55.970;37.502;2022-08-18T07:14:56;33.88;;;30.58;;
32407;SDS011;18869;55.970;37.502;2022-08-18T07:17:27;34.83;;;29.85;;
32407;SDS011;18869;55.970;37.502;2022-08-18T07:20:05;30.55;;;27.40;;
32407;SDS011;18869;55.970;37.502;2022-08-18T07:22:51;30.17;;;26.90;;
32407;SDS011;18869;55.970;37.502;2022-08-18T07:25:21;28.45;;;25.55;;
32407;SDS011;18869;55.970;37.502;2022-08-18T07:27:51;29.33;;;25.88;;
32407;SDS011;18869;55.970;37.502;2022-08-18T07:30:25;27.67;;;24.70;;
32407;SDS011;18869;55.970;37.502;2022-08-18T07:32:57;27.87;;;23.75;;
32407;SDS011;18869;55.970;37.502;2022-08-18T07:35:31;23.35;;;20.95;;
32407;SDS011;18869;55.970;37.502;2022-08-18T07:38:08;23.38;;;20.83;;
32407;SDS011;18869;55.970;37.502;2022-08-18T07:40:44;23.62;;;20.92;;
32407;SDS011;18869;55.970;37.502;2022-08-18T07:43:17;22.55;;;20.12;;
32407;SDS011;18869;55.970;37.502;2022-08-18T07:45:52;22.02;;;19.70;;
32407;SDS011;18869;55.970;37.502;2022-08-18T07:48:24;23.75;;;19.40;;
32407;SDS011;18869;55.970;37.502;2022-08-18T07:50:56;23.05;;;20.58;;
32407;SDS011;18869;55.970;37.502;2022-08-18T07:53:31;20.20;;;18.05;;
32407;SDS011;18869;55.970;37.502;2022-08-18T07:56:04;20.75;;;18.42;;
32407;SDS011;18869;55.970;37.502;2022-08-18T07:58:36;18.83;;;16.45;;
32407;SDS011;18869;55.970;37.502;2022-08-18T08:01:09;15.10;;;12.95;;
32407;SDS011;18869;55.970;37.502;2022-08-18T08:03:43;16.15;;;11.15;;
32407;SDS011;18869;55.970;37.502;2022-08-18T08:06:17;10.88;;;9.77;;
32407;SDS011;18869;55.970;37.502;2022-08-18T08:08:50;17.10;;;9.50;;
32407;SDS011;18869;55.970;37.502;2022-08-18T08:11:25;7.57;;;6.53;;
32407;SDS011;18869;55.970;37.502;2022-08-18T08:14:05;6.30;;;5.55;;
32407;SDS011;18869;55.970;37.502;2022-08-18T08:16:42;6.07;;;5.47;;
32407;SDS011;18869;55.970;37.502;2022-08-18T08:19:24;7.10;;;4.45;;
32407;SDS011;18869;55.970;37.502;2022-08-18T08:22:03;11.90;;;3.80;;
32407;SDS011;18869;55.970;37.502;2022-08-18T08:24:37;4.32;;;3.75;;
32407;SDS011;18869;55.970;37.502;2022-08-18T08:27:09;5.22;;;3.70;;
32407;SDS011;18869;55.970;37.502;2022-08-18T08:29:47;6.00;;;4.00;;
32407;SDS011;18869;55.970;37.502;2022-08-18T08:32:19;5.30;;;3.58;;
32407;SDS011;18869;55.970;37.502;2022-08-18T08:34:54;4.30;;;3.90;;
32407;SDS011;18869;55.970;37.502;2022-08-18T08:37:26;5.05;;;4.07;;
32407;SDS011;18869;55.970;37.502;2022-08-18T08:39:59;3.62;;;3.33;;
32407;SDS011;18869;55.970;37.502;2022-08-18T08:42:32;5.47;;;3.47;;
32407;SDS011;18869;55.970;37.502;2022-08-18T08:45:07;6.15;;;3.80;;
32407;SDS011;18869;55.970;37.502;2022-08-18T08:47:37;5.57;;;3.87;;
32407;SDS011;18869;55.970;37.502;2022-08-18T08:50:10;6.57;;;4.00;;
32407;SDS011;18869;55.970;37.502;2022-08-18T08:52:42;5.30;;;3.37;;
32407;SDS011;18869;55.970;37.502;2022-08-18T08:55:15;5.40;;;3.42;;
32407;SDS011;18869;55.970;37.502;2022-08-18T08:57:46;6.03;;;3.25;;
32407;SDS011;18869;55.970;37.502;2022-08-18T09:00:19;6.30;;;3.50;;
32407;SDS011;18869;55.970;37.502;2022-08-18T09:05:59;4.37;;;2.80;;
32407;SDS011;18869;55.970;37.502;2022-08-18T09:08:33;7.78;;;2.95;;
32407;SDS011;18869;55.970;37.502;2022-08-18T09:11:33;3.12;;;2.00;;
32407;SDS011;18869;55.970;37.502;2022-08-18T09:14:39;3.95;;;2.92;;
32407;SDS011;18869;55.970;37.502;2022-08-18T09:20:31;2.83;;;2.50;;
32407;SDS011;18869;55.970;37.502;2022-08-18T09:23:09;3.58;;;2.62;;
32407;SDS011;18869;55.970;37.502;2022-08-18T09:25:45;5.80;;;2.67;;
32407;SDS011;18869;55.970;37.502;2022-08-18T09:28:17;3.45;;;2.40;;
32407;SDS011;18869;55.970;37.502;2022-08-18T09:30:52;3.92;;;2.70;;
32407;SDS011;18869;55.970;37.502;2022-08-18T09:33:49;3.12;;;2.05;;
32407;SDS011;18869;55.970;37.502;2022-08-18T09:36:30;5.07;;;2.80;;
32407;SDS011;18869;55.970;37.502;2022-08-18T09:39:08;5.87;;;2.40;;
32407;SDS011;18869;55.970;37.502;2022-08-18T09:42:06;2.78;;;2.20;;
32407;SDS011;18869;55.970;37.502;2022-08-18T09:48:06;2.90;;;2.47;;
32407;SDS011;18869;55.970;37.502;2022-08-18T09:50:57;3.85;;;2.22;;
32407;SDS011;18869;55.970;37.502;2022-08-18T09:54:05;7.90;;;2.35;;
32407;SDS011;18869;55.970;37.502;2022-08-18T10:06:01;7.18;;;3.20;;
32407;SDS011;18869;55.970;37.502;2022-08-18T10:08:45;3.95;;;2.60;;
32407;SDS011;18869;55.970;37.502;2022-08-18T10:11:34;4.05;;;2.30;;
32407;SDS011;18869;55.970;37.502;2022-08-18T10:14:16;3.80;;;2.30;;
32407;SDS011;18869;55.970;37.502;2022-08-18T10:16:53;8.68;;;2.87;;
32407;SDS011;18869;55.970;37.502;2022-08-18T10:19:27;2.30;;;1.90;;
32407;SDS011;18869;55.970;37.502;2022-08-18T10:22:06;3.75;;;2.40;;
32407;SDS011;18869;55.970;37.502;2022-08-18T10:24:37;3.10;;;2.60;;
32407;SDS011;18869;55.970;37.502;2022-08-18T10:27:09;7.32;;;2.78;;
32407;SDS011;18869;55.970;37.502;2022-08-18T10:29:44;3.37;;;2.40;;
32407;SDS011;18869;55.970;37.502;2022-08-18T10:38:20;5.72;;;2.53;;
32407;SDS011;18869;55.970;37.502;2022-08-18T10:40:53;5.35;;;2.85;;
32407;SDS011;18869;55.970;37.502;2022-08-18T10:43:28;9.95;;;2.85;;
32407;SDS011;18869;55.970;37.502;2022-08-18T10:46:02;2.95;;;2.17;;
32407;SDS011;18869;55.970;37.502;2022-08-18T10:48:30;5.35;;;2.47;;
32407;SDS011;18869;55.970;37.502;2022-08-18T10:51:01;6.12;;;2.70;;
32407;SDS011;18869;55.970;37.502;2022-08-18T10:53:36;2.78;;;2.35;;
32407;SDS011;18869;55.970;37.502;2022-08-18T10:56:08;5.55;;;3.03;;
32407;SDS011;18869;55.970;37.502;2022-08-18T10:58:53;6.10;;;3.10;;
32407;SDS011;18869;55.970;37.502;2022-08-18T11:01:45;4.03;;;2.87;;
32407;SDS011;18869;55.970;37.502;2022-08-18T11:04:25;4.55;;;2.95;;
32407;SDS011;18869;55.970;37.502;2022-08-18T11:07:01;7.05;;;2.87;;
32407;SDS011;18869;55.970;37.502;2022-08-18T11:09:34;3.75;;;2.62;;
32407;SDS011;18869;55.970;37.502;2022-08-18T11:12:06;4.80;;;2.70;;
32407;SDS011;18869;55.970;37.502;2022-08-18T11:14:44;4.40;;;2.67;;
32407;SDS011;18869;55.970;37.502;2022-08-18T11:17:24;4.57;;;2.50;;
32407;SDS011;18869;55.970;37.502;2022-08-18T11:20:00;4.62;;;2.55;;
32407;SDS011;18869;55.970;37.502;2022-08-18T11:22:31;4.40;;;2.30;;
32407;SDS011;18869;55.970;37.502;2022-08-18T11:25:16;5.70;;;2.92;;
32407;SDS011;18869;55.970;37.502;2022-08-18T11:27:47;3.03;;;2.37;;
32407;SDS011;18869;55.970;37.502;2022-08-18T11:30:16;4.85;;;2.60;;
32407;SDS011;18869;55.970;37.502;2022-08-18T11:32:44;5.60;;;2.65;;
32407;SDS011;18869;55.970;37.502;2022-08-18T11:35:12;3.35;;;2.78;;
32407;SDS011;18869;55.970;37.502;2022-08-18T11:37:43;4.80;;;2.40;;
32407;SDS011;18869;55.970;37.502;2022-08-18T11:40:21;6.22;;;2.80;;
32407;SDS011;18869;55.970;37.502;2022-08-18T11:43:01;4.62;;;2.83;;
32407;SDS011;18869;55.970;37.502;2022-08-18T11:45:32;4.12;;;2.85;;
32407;SDS011;18869;55.970;37.502;2022-08-18T11:48:09;4.90;;;2.30;;
32407;SDS011;18869;55.970;37.502;2022-08-18T11:50:48;2.28;;;2.08;;
32407;SDS011;18869;55.970;37.502;2022-08-18T11:53:35;4.05;;;2.60;;
32407;SDS011;18869;55.970;37.502;2022-08-18T11:56:15;3.28;;;2.22;;
32407;SDS011;18869;55.970;37.502;2022-08-18T11:58:49;2.80;;;2.22;;
32407;SDS011;18869;55.970;37.502;2022-08-18T12:04:19;3.10;;;1.92;;
32407;SDS011;18869;55.970;37.502;2022-08-18T12:06:52;7.57;;;2.55;;
32407;SDS011;18869;55.970;37.502;2022-08-18T12:09:28;4.12;;;2.20;;
32407;SDS011;18869;55.970;37.502;2022-08-18T12:12:05;5.45;;;2.37;;
32407;SDS011;18869;55.970;37.502;2022-08-18T12:14:51;4.10;;;2.15;;
32407;SDS011;18869;55.970;37.502;2022-08-18T12:17:30;7.15;;;2.83;;
32407;SDS011;18869;55.970;37.502;2022-08-18T12:19:58;3.92;;;2.20;;
32407;SDS011;18869;55.970;37.502;2022-08-18T12:22:29;4.75;;;1.85;;
32407;SDS011;18869;55.970;37.502;2022-08-18T12:24:57;2.58;;;1.83;;
32407;SDS011;18869;55.970;37.502;2022-08-18T12:27:27;7.57;;;1.95;;
32407;SDS011;18869;55.970;37.502;2022-08-18T12:29:57;5.68;;;1.92;;
32407;SDS011;18869;55.970;37.502;2022-08-18T12:32:27;7.75;;;2.10;;
32407;SDS011;18869;55.970;37.502;2022-08-18T12:34:59;7.43;;;2.72;;
32407;SDS011;18869;55.970;37.502;2022-08-18T12:37:29;3.65;;;2.58;;
32407;SDS011;18869;55.970;37.502;2022-08-18T12:39:57;3.35;;;2.08;;
32407;SDS011;18869;55.970;37.502;2022-08-18T12:42:28;6.50;;;2.30;;
32407;SDS011;18869;55.970;37.502;2022-08-18T12:44:56;2.97;;;2.00;;
32407;SDS011;18869;55.970;37.502;2022-08-18T12:47:24;4.07;;;1.80;;
32407;SDS011;18869;55.970;37.502;2022-08-18T12:49:57;5.07;;;2.10;;
32407;SDS011;18869;55.970;37.502;2022-08-18T12:52:24;3.80;;;2.78;;
32407;SDS011;18869;55.970;37.502;2022-08-18T12:54:52;5.18;;;2.97;;
32407;SDS011;18869;55.970;37.502;2022-08-18T12:57:22;4.18;;;2.30;;
32407;SDS011;18869;55.970;37.502;2022-08-18T12:59:52;3.10;;;2.17;;
32407;SDS011;18869;55.970;37.502;2022-08-18T13:02:21;5.05;;;2.20;;
32407;SDS011;18869;55.970;37.502;2022-08-18T13:04:49;2.97;;;2.25;;
32407;SDS011;18869;55.970;37.502;2022-08-18T13:07:17;2.47;;;2.00;;
32407;SDS011;18869;55.970;37.502;2022-08-18T13:09:44;1.85;;;1.73;;
32407;SDS011;18869;55.970;37.502;2022-08-18T13:12:15;2.15;;;1.92;;
32407;SDS011;18869;55.970;37.502;2022-08-18T13:14:44;4.90;;;1.92;;
32407;SDS011;18869;55.970;37.502;2022-08-18T13:17:17;2.20;;;2.00;;
32407;SDS011;18869;55.970;37.502;2022-08-18T13:19:45;3.47;;;1.67;;
32407;SDS011;18869;55.970;37.502;2022-08-18T13:22:15;4.10;;;1.80;;
32407;SDS011;18869;55.970;37.502;2022-08-18T13:24:43;2.37;;;1.60;;
32407;SDS011;18869;55.970;37.502;2022-08-18T13:27:12;3.47;;;1.85;;
32407;SDS011;18869;55.970;37.502;2022-08-18T13:29:39;2.15;;;1.95;;
32407;SDS011;18869;55.970;37.502;2022-08-18T13:32:07;3.67;;;2.00;;
32407;SDS011;18869;55.970;37.502;2022-08-18T13:34:37;4.25;;;1.87;;
32407;SDS011;18869;55.970;37.502;2022-08-18T13:37:07;5.25;;;1.90;;
32407;SDS011;18869;55.970;37.502;2022-08-18T13:39:35;2.17;;;1.45;;
32407;SDS011;18869;55.970;37.502;2022-08-18T13:42:03;2.40;;;2.00;;
32407;SDS011;18869;55.970;37.502;2022-08-18T13:44:31;4.70;;;1.45;;
32407;SDS011;18869;55.970;37.502;2022-08-18T13:46:59;5.50;;;1.65;;
32407;SDS011;18869;55.970;37.502;2022-08-18T13:49:26;2.30;;;1.70;;
32407;SDS011;18869;55.970;37.502;2022-08-18T13:51:55;3.05;;;1.73;;
32407;SDS011;18869;55.970;37.502;2022-08-18T13:54:25;3.92;;;1.90;;
32407;SDS011;18869;55.970;37.502;2022-08-18T13:56:54;6.40;;;1.77;;
32407;SDS011;18869;55.970;37.502;2022-08-18T13:59:22;1.98;;;1.75;;
32407;SDS011;18869;55.970;37.502;2022-08-18T14:02:01;2.37;;;1.83;;
32407;SDS011;18869;55.970;37.502;2022-08-18T14:04:31;2.17;;;1.58;;
32407;SDS011;18869;55.970;37.502;2022-08-18T14:07:00;4.27;;;1.83;;
32407;SDS011;18869;55.970;37.502;2022-08-18T14:09:30;5.07;;;2.55;;
32407;SDS011;18869;55.970;37.502;2022-08-18T14:11:58;3.90;;;1.60;;
32407;SDS011;18869;55.970;37.502;2022-08-18T14:14:26;4.10;;;1.90;;
32407;SDS011;18869;55.970;37.502;2022-08-18T14:16:54;2.10;;;1.60;;
32407;SDS011;18869;55.970;37.502;2022-08-18T14:19:22;3.43;;;1.67;;
32407;SDS011;18869;55.970;37.502;2022-08-18T14:22:10;2.77;;;1.73;;
32407;SDS011;18869;55.970;37.502;2022-08-18T14:24:56;2.90;;;1.97;;
32407;SDS011;18869;55.970;37.502;2022-08-18T14:27:41;2.83;;;1.60;;
32407;SDS011;18869;55.970;37.502;2022-08-18T14:30:10;1.87;;;1.73;;
32407;SDS011;18869;55.970;37.502;2022-08-18T14:32:43;3.80;;;1.93;;
32407;SDS011;18869;55.970;37.502;2022-08-18T14:35:14;3.77;;;2.07;;
32407;SDS011;18869;55.970;37.502;2022-08-18T14:37:45;4.23;;;2.40;;
32407;SDS011;18869;55.970;37.502;2022-08-18T14:40:14;2.00;;;1.80;;
32407;SDS011;18869;55.970;37.502;2022-08-18T14:42:45;3.87;;;2.00;;
32407;SDS011;18869;55.970;37.502;2022-08-18T14:45:13;3.07;;;1.73;;
32407;SDS011;18869;55.970;37.502;2022-08-18T14:47:41;3.60;;;2.00;;
32407;SDS011;18869;55.970;37.502;2022-08-18T14:50:09;1.83;;;1.63;;
32407;SDS011;18869;55.970;37.502;2022-08-18T14:52:39;2.23;;;1.90;;
32407;SDS011;18869;55.970;37.502;2022-08-18T14:55:12;2.17;;;1.67;;
32407;SDS011;18869;55.970;37.502;2022-08-18T14:57:40;3.33;;;2.00;;
32407;SDS011;18869;55.970;37.502;2022-08-18T15:00:09;2.63;;;2.03;;
32407;SDS011;18869;55.970;37.502;2022-08-18T15:02:41;1.90;;;1.77;;
32407;SDS011;18869;55.970;37.502;2022-08-18T15:05:09;3.60;;;2.50;;
32407;SDS011;18869;55.970;37.502;2022-08-18T15:07:37;4.23;;;2.60;;
32407;SDS011;18869;55.970;37.502;2022-08-18T15:10:06;3.97;;;2.87;;
32407;SDS011;18869;55.970;37.502;2022-08-18T15:12:38;7.70;;;2.70;;
32407;SDS011;18869;55.970;37.502;2022-08-18T15:15:07;5.93;;;2.80;;
32407;SDS011;18869;55.970;37.502;2022-08-18T15:17:36;5.20;;;3.43;;
32407;SDS011;18869;55.970;37.502;2022-08-18T15:20:05;3.37;;;2.70;;
32407;SDS011;18869;55.970;37.502;2022-08-18T15:22:36;4.47;;;3.43;;
32407;SDS011;18869;55.970;37.502;2022-08-18T15:25:24;4.97;;;3.30;;
32407;SDS011;18869;55.970;37.502;2022-08-18T15:28:12;6.23;;;3.10;;
32407;SDS011;18869;55.970;37.502;2022-08-18T15:30:42;3.97;;;3.07;;